Time;durP1;ratioP1;P1;durP2;ratioP2;P2;SDS_P1;SDS_P2;PMS_P1;PMS_P2;Temp;Humidity;BMP_temperature;BMP_pressure;BME280_temperature;BME280_humidity;BME280_pressure;Samples;Min_cycle;Max_cycle;Signal;HPM_P1;HPM_P2
2024/03/25 00:00:11;;;;;;;;;;;;;;;5.34;83.50;98526.09;5074034;28;19958;-66
2024/03/25 00:02:41;;;;;;;;;;;;;;;5.31;83.90;98531.16;5057627;28;19921;-66
2024/03/25 00:05:09;;;;;;;;;;;;;;;5.27;83.80;98532.00;5073536;28;20420;-66
2024/03/25 00:07:37;;;;;;;;;;;;;;;5.21;83.38;98516.78;5056800;28;20286;-66
2024/03/25 00:10:06;;;;;;;;;;;;;;;5.19;83.59;98518.47;5057631;28;19920;-66
2024/03/25 00:12:34;;;;;;;;;;;;;;;5.15;83.63;98526.91;5056908;28;19943;-65
2024/03/25 00:15:01;;;;;;;;;;;;;;;5.19;83.64;98528.59;5073745;28;19927;-66
2024/03/25 00:17:30;;;;;;;;;;;;;;;5.33;83.71;98521.88;5057150;28;19921;-66
2024/03/25 00:19:56;;;;;;;;;;;;;;;5.43;83.58;98518.50;5056985;28;19924;-66
2024/03/25 00:22:25;;;;;;;;;;;;;;;5.46;83.49;98516.81;5073475;28;19928;-66
2024/03/25 00:24:52;;;;;;;;;;;;;;;5.50;83.60;98519.34;5073237;28;19943;-66
2024/03/25 00:27:19;;;;;;;;;;;;;;;5.53;83.19;98498.28;5073709;28;19924;-66
2024/03/25 00:29:47;;;;;;;;;;;;;;;5.53;83.13;98503.34;5073259;28;19921;-66
2024/03/25 00:32:14;;;;;;;;;;;;;;;5.48;83.04;98494.91;5073149;28;19926;-66
2024/03/25 00:34:41;;;;;;;;;;;;;;;5.43;82.66;98497.44;5073409;28;19920;-66
2024/03/25 00:37:08;;;;;;;;;;;;;;;5.44;83.01;98509.25;5073391;28;19969;-66
2024/03/25 00:39:35;;;;;;;;;;;;;;;5.45;82.91;98507.56;5056861;28;20361;-66
2024/03/25 00:42:02;;;;;;;;;;;;;;;5.51;82.77;98505.88;5073263;28;19926;-66
2024/03/25 00:44:29;;;;;;;;;;;;;;;5.51;82.59;98499.97;5073305;28;20389;-67
2024/03/25 00:46:58;;;;;;;;;;;;;;;5.50;82.50;98503.31;5055721;28;20340;-66
2024/03/25 00:49:24;;;;;;;;;;;;;;;5.46;82.37;98509.22;5073340;28;19920;-66
2024/03/25 00:51:52;;;;;;;;;;;;;;;5.42;82.13;98508.41;5056507;28;20287;-66
2024/03/25 00:54:18;;;;;;;;;;;;;;;5.35;81.91;98504.19;5073073;28;19931;-66
2024/03/25 00:56:46;;;;;;;;;;;;;;;5.30;81.96;98506.69;5072933;28;19920;-66
2024/03/25 00:59:12;;;;;;;;;;;;;;;5.25;82.04;98505.88;5073115;28;19952;-66
2024/03/25 01:01:40;;;;;;;;;;;;;;;5.25;82.08;98508.38;5072821;28;20414;-66
2024/03/25 01:04:07;;;;;;;;;;;;;;;5.19;81.38;98503.31;5056271;28;19920;-66
2024/03/25 01:06:35;;;;;;;;;;;;;;;5.09;81.68;98496.53;5072656;28;19950;-66
2024/03/25 01:09:01;;;;;;;;;;;;;;;4.93;81.26;98499.88;5072621;28;19928;-66
2024/03/25 01:11:29;;;;;;;;;;;;;;;4.84;81.38;98499.88;5072996;28;19931;-66
2024/03/25 01:13:55;;;;;;;;;;;;;;;4.72;81.69;98497.31;5056355;28;19920;-66
2024/03/25 01:16:22;;;;;;;;;;;;;;;4.59;81.55;98503.13;5073003;28;19932;-66
2024/03/25 01:18:49;;;;;;;;;;;;;;;4.44;81.59;98503.09;5056309;28;19920;-66
2024/03/25 01:21:17;;;;;;;;;;;;;;;4.29;81.90;98500.50;5072672;28;20267;-66
2024/03/25 01:23:44;;;;;;;;;;;;;;;4.26;82.18;98498.78;5072929;28;19920;-66
2024/03/25 01:26:11;;;;;;;;;;;;;;;4.21;82.51;98499.59;5072546;28;19920;-66
2024/03/25 01:28:38;;;;;;;;;;;;;;;4.07;82.33;98487.75;5072424;28;19932;-66
2024/03/25 01:31:05;;;;;;;;;;;;;;;4.01;82.48;98487.72;5072835;28;19920;-66
2024/03/25 01:33:32;;;;;;;;;;;;;;;4.02;82.86;98484.38;5056322;28;19981;-65
2024/03/25 01:35:59;;;;;;;;;;;;;;;4.04;83.47;98485.22;5056266;28;19969;-66
2024/03/25 01:38:27;;;;;;;;;;;;;;;4.06;83.25;98491.09;5055774;28;19927;-66
2024/03/25 01:40:56;;;;;;;;;;;;;;;4.19;83.46;98491.19;5072738;28;19974;-66
2024/03/25 01:43:23;;;;;;;;;;;;;;;4.28;83.70;98487.00;5072350;28;19921;-66
2024/03/25 01:45:51;;;;;;;;;;;;;;;4.37;84.10;98496.31;5072341;28;19951;-67
2024/03/25 01:48:18;;;;;;;;;;;;;;;4.49;84.21;98488.78;5072154;28;19920;-66
2024/03/25 01:50:45;;;;;;;;;;;;;;;4.50;84.08;98487.94;5072609;28;19920;-66
2024/03/25 01:53:13;;;;;;;;;;;;;;;4.46;84.02;98491.31;5056233;28;19927;-66
2024/03/25 01:55:43;;;;;;;;;;;;;;;4.47;83.99;98482.88;5055476;28;19925;-66
2024/03/25 01:58:11;;;;;;;;;;;;;;;4.52;84.47;98481.22;5074683;28;19920;-66
2024/03/25 02:00:39;;;;;;;;;;;;;;;4.59;84.33;98477.88;5059652;28;19927;-66
2024/03/25 02:03:06;;;;;;;;;;;;;;;4.70;84.55;98473.72;5075957;28;20428;-66
2024/03/25 02:05:35;;;;;;;;;;;;;;;4.85;84.64;98471.22;5075936;28;19970;-66
2024/03/25 02:08:02;;;;;;;;;;;;;;;4.97;84.77;98471.25;5076105;28;20082;-66
2024/03/25 02:10:30;;;;;;;;;;;;;;;5.02;84.62;98477.16;5076106;28;19942;-65
2024/03/25 02:12:58;;;;;;;;;;;;;;;5.03;84.83;98471.25;5059442;28;19921;-66
2024/03/25 02:15:26;;;;;;;;;;;;;;;5.08;84.53;98473.78;5076023;28;20358;-66
2024/03/25 02:17:52;;;;;;;;;;;;;;;5.17;84.58;98474.66;5059281;28;19920;-66
2024/03/25 02:20:20;;;;;;;;;;;;;;;5.21;84.51;98478.84;5076153;28;20321;-66
2024/03/25 02:22:46;;;;;;;;;;;;;;;5.29;84.48;98478.88;5075901;28;19921;-66
2024/03/25 02:25:15;;;;;;;;;;;;;;;5.25;84.05;98472.13;5042890;28;19920;-66
2024/03/25 02:27:43;;;;;;;;;;;;;;;5.24;84.20;98467.91;5075673;28;19927;-66
2024/03/25 02:30:12;;;;;;;;;;;;;;;5.19;84.00;98472.97;5075758;28;19921;-66
2024/03/25 02:32:39;;;;;;;;;;;;;;;5.12;83.39;98476.31;5075865;28;19967;-66
2024/03/25 02:35:08;;;;;;;;;;;;;;;5.07;83.71;98472.94;5075743;28;19928;-66
2024/03/25 02:37:34;;;;;;;;;;;;;;;5.04;83.93;98478.00;5075889;28;19921;-66
2024/03/25 02:40:02;;;;;;;;;;;;;;;4.99;83.88;98468.72;5079177;28;20271;-66
2024/03/25 02:42:29;;;;;;;;;;;;;;;4.92;83.97;98477.97;5095832;28;19920;-66
2024/03/25 02:44:58;;;;;;;;;;;;;;;4.91;84.00;98475.44;5078825;28;19920;-66
2024/03/25 02:47:25;;;;;;;;;;;;;;;4.91;84.38;98478.81;5095772;28;19959;-67
2024/03/25 02:49:53;;;;;;;;;;;;;;;4.90;84.34;98476.28;5095569;28;19927;-67
2024/03/25 02:52:19;;;;;;;;;;;;;;;4.87;84.54;98472.06;5095626;28;20026;-66
2024/03/25 02:54:47;;;;;;;;;;;;;;;4.84;84.61;98486.38;5095433;28;19969;-67
2024/03/25 02:57:13;;;;;;;;;;;;;;;4.80;84.75;98482.16;5095385;28;20444;-66
2024/03/25 02:59:42;;;;;;;;;;;;;;;4.79;84.78;98481.31;5095180;28;20374;-66
2024/03/25 03:02:09;;;;;;;;;;;;;;;4.75;84.93;98479.63;5078327;28;19920;-66
2024/03/25 03:04:37;;;;;;;;;;;;;;;4.67;85.15;98478.75;5095240;28;20434;-66
2024/03/25 03:07:04;;;;;;;;;;;;;;;4.68;84.90;98483.81;5094860;28;19920;-66
2024/03/25 03:09:31;;;;;;;;;;;;;;;4.73;85.27;98486.34;5094671;28;19920;-67
2024/03/25 03:11:58;;;;;;;;;;;;;;;4.73;85.62;98481.28;5095234;28;19920;-66
2024/03/25 03:14:25;;;;;;;;;;;;;;;4.81;85.62;98483.84;5095465;28;19920;-67
2024/03/25 03:16:57;;;;;;;;;;;;;;;4.81;85.42;98479.63;5095402;28;19955;-66
2024/03/25 03:19:26;;;;;;;;;;;;;;;4.81;85.45;98484.69;5078444;28;19943;-66
2024/03/25 03:21:53;;;;;;;;;;;;;;;4.81;85.63;98484.69;5095189;28;19920;-67
2024/03/25 03:24:20;;;;;;;;;;;;;;;4.81;85.17;98484.69;5078356;28;19973;-66
2024/03/25 03:26:47;;;;;;;;;;;;;;;4.88;85.47;98483.88;5094625;28;19924;-66
2024/03/25 03:29:14;;;;;;;;;;;;;;;4.91;85.37;98483.88;5095065;28;19927;-66
2024/03/25 03:31:40;;;;;;;;;;;;;;;4.89;85.33;98493.16;5094847;28;19985;-66
2024/03/25 03:34:08;;;;;;;;;;;;;;;4.85;85.24;98490.63;5077975;28;19920;-66
2024/03/25 03:36:36;;;;;;;;;;;;;;;4.85;85.50;98491.44;5077959;28;19943;-66
2024/03/25 03:39:03;;;;;;;;;;;;;;;4.86;85.45;98494.81;5094929;28;20308;-66
2024/03/25 03:41:29;;;;;;;;;;;;;;;4.93;85.47;98489.78;5094512;28;19924;-66
2024/03/25 03:43:57;;;;;;;;;;;;;;;5.01;85.52;98495.72;5077555;28;20328;-66
2024/03/25 03:46:23;;;;;;;;;;;;;;;5.13;85.36;98493.19;5094270;28;19955;-67
2024/03/25 03:48:50;;;;;;;;;;;;;;;5.13;84.98;98498.25;5077215;28;19923;-66
2024/03/25 03:51:17;;;;;;;;;;;;;;;5.04;84.99;98495.69;5094445;28;19920;-66
2024/03/25 03:53:46;;;;;;;;;;;;;;;5.01;85.08;98502.44;5094393;28;20297;-66
2024/03/25 03:56:12;;;;;;;;;;;;;;;4.98;85.14;98493.16;5093951;28;19934;-66
2024/03/25 03:58:39;;;;;;;;;;;;;;;5.01;85.16;98498.22;5094748;28;19920;-66
2024/03/25 04:01:13;;;;;;;;;;;;;;;5.00;84.92;98496.53;5094193;28;19927;-66
2024/03/25 04:03:41;;;;;;;;;;;;;;;5.11;85.31;98494.84;5093945;28;20282;-66
2024/03/25 04:06:08;;;;;;;;;;;;;;;5.14;85.18;98489.81;5077032;28;20002;-67
2024/03/25 04:08:35;;;;;;;;;;;;;;;5.16;85.48;98497.41;5094204;28;19924;-66
2024/03/25 04:11:05;;;;;;;;;;;;;;;5.18;85.46;98503.31;5093847;28;19920;-66
2024/03/25 04:13:34;;;;;;;;;;;;;;;5.10;85.39;98498.25;5094100;28;19977;-66
2024/03/25 04:16:01;;;;;;;;;;;;;;;5.15;85.38;98493.19;5077009;28;19920;-66
2024/03/25 04:18:29;;;;;;;;;;;;;;;5.19;85.39;98498.25;5093929;28;19920;-66
2024/03/25 04:20:55;;;;;;;;;;;;;;;5.19;85.40;98498.25;5059390;28;19923;-66
2024/03/25 04:23:23;;;;;;;;;;;;;;;5.24;85.19;98501.63;5060413;28;19925;-66
2024/03/25 04:25:49;;;;;;;;;;;;;;;5.23;85.47;98494.88;5093609;28;19920;-66
2024/03/25 04:28:18;;;;;;;;;;;;;;;5.23;85.37;98497.41;5093403;28;20362;-66
2024/03/25 04:30:51;;;;;;;;;;;;;;;5.20;85.35;98494.91;5094045;28;19919;-66
2024/03/25 04:33:18;;;;;;;;;;;;;;;5.20;85.45;98499.94;5094259;28;19920;-66
2024/03/25 04:35:45;;;;;;;;;;;;;;;5.25;85.37;98503.34;5076810;28;19927;-66
